Time;durP1;ratioP1;P1;durP2;ratioP2;P2;SDS_P1;SDS_P2;PMS_P1;PMS_P2;Temp;Humidity;BMP_temperature;BMP_pressure;BME280_temperature;BME280_humidity;BME280_pressure;Samples;Min_cycle;Max_cycle;Signal;HPM_P1;HPM_P2
2024/02/20 00:00:15;;;;;;;3.37;3.00;;;10.50;99.90;;;;;;5139602;27;20432;-42
2024/02/20 00:02:42;;;;;;;3.80;3.07;;;10.50;99.90;;;;;;5138172;27;20167;-43
2024/02/20 00:05:12;;;;;;;5.93;2.80;;;10.50;99.90;;;;;;5138132;27;20445;-41
2024/02/20 00:07:38;;;;;;;3.63;2.90;;;10.40;99.90;;;;;;5139933;27;20424;-43
2024/02/20 00:10:08;;;;;;;3.43;2.77;;;10.40;99.90;;;;;;5106547;27;20428;-42
2024/02/20 00:12:37;;;;;;;3.80;2.67;;;10.40;99.90;;;;;;5142493;27;20417;-41
2024/02/20 00:15:06;;;;;;;3.73;2.77;;;10.30;1.00;;;;;;5142871;27;20446;-41
2024/02/20 00:17:33;;;;;;;3.50;2.60;;;10.30;1.00;;;;;;5144027;27;20416;-42
2024/02/20 00:19:59;;;;;;;4.40;2.70;;;10.30;1.00;;;;;;5124802;27;20505;-44
2024/02/20 00:22:25;;;;;;;4.20;2.70;;;10.30;1.00;;;;;;5142048;27;20404;-43
2024/02/20 00:24:54;;;;;;;3.30;2.53;;;10.30;1.00;;;;;;5141338;27;20166;-43
2024/02/20 00:27:20;;;;;;;4.00;2.37;;;10.20;1.00;;;;;;5140382;27;20930;-43
2024/02/20 00:29:46;;;;;;;3.00;2.57;;;10.20;1.00;;;;;;5121532;27;20436;-42
2024/02/20 00:32:13;;;;;;;2.73;2.53;;;10.20;1.00;;;;;;5139347;27;20332;-43
2024/02/20 00:34:38;;;;;;;5.27;2.80;;;10.20;1.00;;;;;;5120754;27;20419;-43
2024/02/20 00:37:05;;;;;;;3.57;2.07;;;10.20;1.00;;;;;;5139657;27;20425;-41
2024/02/20 00:39:32;;;;;;;3.83;2.83;;;10.10;1.00;;;;;;5140600;27;20174;-44
2024/02/20 00:41:58;;;;;;;3.83;2.30;;;10.10;1.00;;;;;;5123220;27;20439;-43
2024/02/20 00:44:23;;;;;;;3.40;2.20;;;10.10;1.00;;;;;;5122089;27;20515;-42
2024/02/20 00:46:49;;;;;;;3.33;2.63;;;10.10;1.00;;;;;;5139563;27;20218;-44
2024/02/20 00:49:16;;;;;;;2.93;2.63;;;10.10;1.00;;;;;;5138972;27;20175;-42
2024/02/20 00:51:43;;;;;;;5.90;3.03;;;10.10;1.00;;;;;;5139076;27;20175;-43
2024/02/20 00:54:08;;;;;;;4.37;3.07;;;10.10;1.00;;;;;;5120260;27;20519;-43
2024/02/20 00:56:34;;;;;;;3.97;3.00;;;10.00;1.00;;;;;;5140080;27;20531;-44
2024/02/20 00:59:02;;;;;;;3.83;3.37;;;10.00;1.00;;;;;;5139278;27;20222;-42
2024/02/20 01:01:28;;;;;;;3.60;3.00;;;10.00;1.00;;;;;;5138918;27;20199;-43
2024/02/20 01:03:53;;;;;;;3.87;3.20;;;10.00;1.80;;;;;;5138694;27;20456;-44
2024/02/20 01:06:19;;;;;;;4.53;3.60;;;10.00;7.80;;;;;;5137678;27;20218;-42
2024/02/20 01:08:45;;;;;;;4.57;3.20;;;10.00;6.30;;;;;;5137745;27;20250;-42
2024/02/20 01:11:10;;;;;;;6.33;3.27;;;10.00;2.50;;;;;;5138636;27;20175;-42
2024/02/20 01:13:38;;;;;;;4.20;2.93;;;9.90;4.60;;;;;;5139516;27;20269;-43
2024/02/20 01:16:04;;;;;;;4.77;3.70;;;9.90;1.00;;;;;;5139159;27;20327;-42
2024/02/20 01:18:30;;;;;;;6.30;3.10;;;9.90;1.00;;;;;;5139200;27;20439;-43
2024/02/20 01:20:55;;;;;;;3.80;3.40;;;9.90;1.00;;;;;;5138424;27;20476;-42
2024/02/20 01:23:21;;;;;;;5.43;3.50;;;9.90;1.00;;;;;;5138915;27;20239;-41
2024/02/20 01:25:47;;;;;;;4.40;3.40;;;9.90;1.00;;;;;;5138823;27;20475;-42
2024/02/20 01:28:12;;;;;;;3.97;2.77;;;9.90;1.00;;;;;;5120248;27;20519;-44
2024/02/20 01:30:38;;;;;;;6.90;3.27;;;9.90;1.00;;;;;;5138124;27;20185;-42
2024/02/20 01:33:04;;;;;;;3.17;2.57;;;9.80;1.00;;;;;;5137972;27;20218;-41
2024/02/20 01:35:30;;;;;;;4.50;3.37;;;9.80;1.00;;;;;;5138291;27;20524;-43
2024/02/20 01:37:59;;;;;;;3.60;2.63;;;9.80;1.00;;;;;;5137969;27;20484;-40
2024/02/20 01:40:25;;;;;;;6.00;3.63;;;9.80;1.00;;;;;;5138112;27;20409;-40
2024/02/20 01:42:57;;;;;;;3.47;2.67;;;9.80;1.00;;;;;;5137313;27;20429;-44
2024/02/20 01:45:24;;;;;;;4.03;3.30;;;9.70;1.00;;;;;;5137498;27;20734;-41
2024/02/20 01:47:50;;;;;;;4.93;3.43;;;9.80;1.00;;;;;;5137956;27;20502;-42
2024/02/20 01:50:16;;;;;;;5.50;3.30;;;9.70;1.00;;;;;;5137632;27;20436;-41
2024/02/20 01:52:43;;;;;;;3.23;2.40;;;9.70;1.00;;;;;;5138005;27;20798;-42
2024/02/20 01:55:11;;;;;;;5.57;3.47;;;9.70;1.00;;;;;;5119941;27;20499;-41
2024/02/20 01:57:37;;;;;;;5.30;3.10;;;9.70;1.00;;;;;;5118930;28;20424;-43
2024/02/20 02:00:05;;;;;;;4.50;2.60;;;9.70;1.00;;;;;;5136583;27;20698;-49
2024/02/20 02:02:31;;;;;;;6.40;2.63;;;9.70;1.00;;;;;;5136094;27;20420;-43
2024/02/20 02:04:56;;;;;;;4.77;3.23;;;9.70;1.00;;;;;;5137585;27;20424;-41
2024/02/20 02:07:22;;;;;;;4.60;3.23;;;9.70;1.00;;;;;;5137638;28;20278;-42
2024/02/20 02:09:48;;;;;;;4.70;3.00;;;9.70;1.00;;;;;;5137812;27;20202;-44
2024/02/20 02:12:13;;;;;;;3.33;2.73;;;9.70;1.00;;;;;;5138606;27;20178;-41
2024/02/20 02:14:45;;;;;;;4.90;2.67;;;9.70;1.00;;;;;;5141821;27;20494;-44
2024/02/20 02:17:15;;;;;;;4.27;2.80;;;9.70;1.00;;;;;;5142972;27;20183;-41
2024/02/20 02:19:41;;;;;;;5.00;2.80;;;9.70;1.00;;;;;;5142211;27;20405;-42
2024/02/20 02:22:07;;;;;;;8.53;3.10;;;9.70;1.00;;;;;;5142175;27;20428;-43
2024/02/20 02:24:36;;;;;;;3.00;2.67;;;9.70;1.00;;;;;;5142714;27;20424;-41
2024/02/20 02:27:04;;;;;;;4.83;2.80;;;9.70;1.00;;;;;;5142567;27;20468;-42
2024/02/20 02:29:31;;;;;;;2.90;2.40;;;9.70;1.00;;;;;;5142233;27;20444;-43
2024/02/20 02:31:57;;;;;;;4.60;2.87;;;9.70;1.00;;;;;;5141459;27;20791;-42
2024/02/20 02:34:24;;;;;;;4.17;2.90;;;9.60;1.00;;;;;;5141841;27;20439;-41
2024/02/20 02:36:50;;;;;;;3.13;2.80;;;9.60;1.00;;;;;;5142506;27;20202;-43
2024/02/20 02:39:17;;;;;;;5.40;2.83;;;9.60;1.00;;;;;;5141853;27;20456;-42
2024/02/20 02:41:43;;;;;;;3.57;2.63;;;9.60;1.00;;;;;;5141894;27;20493;-41
2024/02/20 02:44:09;;;;;;;4.10;2.57;;;9.60;1.00;;;;;;5141950;27;20420;-45
2024/02/20 02:46:34;;;;;;;4.13;2.40;;;9.60;1.00;;;;;;5142427;27;20572;-43
2024/02/20 02:49:00;;;;;;;3.07;2.20;;;9.50;1.00;;;;;;5141692;27;20420;-43
2024/02/20 02:51:26;;;;;;;6.07;2.90;;;9.50;1.00;;;;;;5140849;27;20187;-43
2024/02/20 02:53:51;;;;;;;2.80;2.17;;;9.50;1.00;;;;;;5141320;27;20179;-41
2024/02/20 02:56:17;;;;;;;5.50;2.90;;;9.50;1.00;;;;;;5141851;27;20476;-43
2024/02/20 02:58:43;;;;;;;2.80;2.20;;;9.50;1.00;;;;;;5141628;27;20175;-44
2024/02/20 03:01:09;;;;;;;3.93;2.60;;;9.50;1.00;;;;;;5141898;27;20243;-42
2024/02/20 03:03:38;;;;;;;3.40;2.63;;;9.50;1.00;;;;;;5141791;27;20437;-43
2024/02/20 03:06:06;;;;;;;4.90;2.47;;;9.50;1.00;;;;;;5141646;27;20523;-42
2024/02/20 03:08:33;;;;;;;5.23;2.47;;;9.50;1.00;;;;;;5123323;27;20412;-41
2024/02/20 03:10:59;;;;;;;3.17;2.40;;;9.50;1.00;;;;;;5141764;27;20440;-43
2024/02/20 03:13:25;;;;;;;5.13;2.50;;;9.50;1.00;;;;;;5141788;27;20401;-45
2024/02/20 03:15:50;;;;;;;5.43;2.60;;;9.50;1.00;;;;;;5141527;27;20417;-43
2024/02/20 03:18:16;;;;;;;3.33;2.53;;;9.50;1.00;;;;;;5141143;27;20233;-42
2024/02/20 03:20:42;;;;;;;4.73;2.80;;;9.50;1.00;;;;;;5119845;27;20258;-43
2024/02/20 03:23:08;;;;;;;5.90;2.60;;;9.40;1.00;;;;;;5120560;28;20198;-42
2024/02/20 03:25:34;;;;;;;6.30;3.10;;;9.40;1.00;;;;;;5119385;28;20473;-43
2024/02/20 03:28:00;;;;;;;6.77;2.73;;;9.40;1.00;;;;;;5101769;28;20437;-42
2024/02/20 03:30:28;;;;;;;5.73;2.63;;;9.40;1.00;;;;;;5119839;28;20502;-42
2024/02/20 03:32:54;;;;;;;2.83;2.33;;;9.40;1.00;;;;;;5120194;28;20507;-42
2024/02/20 03:35:22;;;;;;;3.57;2.80;;;9.40;1.00;;;;;;5120143;28;20508;-41
2024/02/20 03:37:49;;;;;;;4.40;2.80;;;9.40;1.00;;;;;;5119695;28;20494;-41
2024/02/20 03:40:15;;;;;;;4.90;2.20;;;9.40;1.00;;;;;;5119443;28;20743;-42
2024/02/20 03:42:41;;;;;;;5.50;2.87;;;9.40;99.90;;;;;;5119775;28;20409;-41
2024/02/20 03:45:07;;;;;;;6.27;2.30;;;9.40;99.90;;;;;;5119884;28;20466;-41
2024/02/20 03:47:33;;;;;;;4.83;1.97;;;9.40;99.90;;;;;;5119358;28;20219;-44
2024/02/20 03:49:59;;;;;;;4.50;2.20;;;9.40;99.90;;;;;;5119413;28;20437;-44
2024/02/20 03:52:24;;;;;;;4.80;2.60;;;9.40;99.90;;;;;;5119162;28;20421;-43
2024/02/20 03:54:50;;;;;;;5.13;2.57;;;9.40;99.90;;;;;;5118605;28;20566;-43
2024/02/20 03:57:16;;;;;;;5.63;2.90;;;9.40;99.90;;;;;;5119200;28;20179;-42
2024/02/20 03:59:42;;;;;;;5.53;3.20;;;9.30;99.90;;;;;;5101703;28;20176;-43
2024/02/20 04:02:08;;;;;;;6.20;2.97;;;9.30;99.90;;;;;;5119651;28;20438;-43
2024/02/20 04:04:34;;;;;;;4.83;2.23;;;9.30;99.90;;;;;;5118220;28;20181;-41
2024/02/20 04:07:01;;;;;;;4.27;2.30;;;9.30;99.90;;;;;;5117573;28;20235;-42
2024/02/20 04:09:27;;;;;;;3.50;1.90;;;9.20;99.90;;;;;;5117104;28;20410;-41
2024/02/20 04:11:53;;;;;;;8.63;2.40;;;9.20;99.90;;;;;;5098812;28;20491;-42
2024/02/20 04:14:19;;;;;;;5.20;2.53;;;9.20;99.90;;;;;;5117515;28;20836;-43
2024/02/20 04:16:45;;;;;;;7.60;3.10;;;9.20;99.90;;;;;;5118438;28;20440;-45
2024/02/20 04:19:10;;;;;;;4.17;2.60;;;9.20;99.90;;;;;;5118591;28;20232;-43
2024/02/20 04:21:36;;;;;;;7.47;2.10;;;9.20;99.90;;;;;;5117771;28;20195;-41
2024/02/20 04:24:01;;;;;;;5.40;2.70;;;9.20;99.90;;;;;;5117269;28;20585;-43
2024/02/20 04:26:27;;;;;;;5.43;2.50;;;9.20;99.90;;;;;;5116650;28;20317;-45
2024/02/20 04:28:53;;;;;;;5.20;3.10;;;9.20;99.90;;;;;;5116013;28;20183;-41
2024/02/20 04:31:18;;;;;;;7.10;3.23;;;9.10;99.90;;;;;;5117842;28;20175;-41
2024/02/20 04:33:44;;;;;;;5.13;2.50;;;9.10;99.90;;;;;;5118476;28;20207;-43
2024/02/20 04:36:09;;;;;;;10.37;3.30;;;9.10;99.90;;;;;;5115842;28;20335;-43
2024/02/20 04:38:35;;;;;;;6.17;3.40;;;9.00;99.90;;;;;;5117213;28;20179;-41
2024/02/20 04:41:01;;;;;;;7.33;4.13;;;9.00;99.90;;;;;;5116979;28;20568;-41
2024/02/20 04:43:26;;;;;;;7.13;3.53;;;9.00;99.90;;;;;;5117334;28;20180;-42
2024/02/20 04:45:52;;;;;;;5.33;2.93;;;8.90;99.90;;;;;;5117583;28;20223;-41
2024/02/20 04:48:17;;;;;;;6.90;2.50;;;8.90;99.90;;;;;;5116741;28;20203;-43
2024/02/20 04:50:43;;;;;;;6.07;2.30;;;8.90;99.90;;;;;;5116800;28;20171;-42
2024/02/20 04:53:09;;;;;;;5.07;2.80;;;8.90;99.90;;;;;;5116247;28;20236;-41
2024/02/20 04:55:36;;;;;;;5.60;2.60;;;8.80;99.90;;;;;;5116455;28;20179;-41
2024/02/20 04:58:02;;;;;;;7.40;2.60;;;8.80;99.90;;;;;;5115170;28;20436;-42
2024/02/20 05:00:28;;;;;;;10.07;3.03;;;8.80;99.90;;;;;;5116403;28;20409;-41
2024/02/20 05:02:53;;;;;;;5.27;2.50;;;8.80;99.90;;;;;;5117849;28;20494;-43
2024/02/20 05:05:19;;;;;;;6.40;2.70;;;8.80;99.90;;;;;;5118742;28;20219;-42
2024/02/20 05:07:44;;;;;;;5.23;2.50;;;8.80;99.90;;;;;;5118299;28;20182;-42
2024/02/20 05:10:10;;;;;;;5.20;2.30;;;8.80;99.90;;;;;;5099739;28;20187;-42
2024/02/20 05:12:42;;;;;;;7.93;2.73;;;8.70;97.20;;;;;;5117151;28;20171;-41
2024/02/20 05:15:09;;;;;;;4.60;2.10;;;8.70;82.60;;;;;;5116578;28;20164;-43
2024/02/20 05:17:34;;;;;;;4.63;2.90;;;8.70;68.90;;;;;;5117851;28;20421;-41
2024/02/20 05:20:00;;;;;;;5.53;2.47;;;8.70;70.00;;;;;;5117062;28;20771;-44
2024/02/20 05:22:27;;;;;;;7.53;2.23;;;8.70;58.60;;;;;;5117699;28;20199;-41
2024/02/20 05:24:53;;;;;;;8.43;2.87;;;8.60;66.80;;;;;;5117738;28;20216;-43
2024/02/20 05:27:19;;;;;;;6.50;2.67;;;8.70;42.10;;;;;;5115684;28;20893;-41
2024/02/20 05:29:44;;;;;;;6.03;2.23;;;8.60;38.00;;;;;;5115367;28;20606;-43
2024/02/20 05:32:10;;;;;;;6.50;2.97;;;8.60;32.20;;;;;;5115662;28;20426;-41
2024/02/20 05:34:36;;;;;;;8.63;3.10;;;8.60;26.30;;;;;;5116707;28;20164;-41
2024/02/20 05:37:01;;;;;;;4.50;2.37;;;8.60;26.30;;;;;;5115634;28;20191;-42
2024/02/20 05:39:27;;;;;;;5.87;2.53;;;8.60;20.30;;;;;;5114086;28;20481;-41
2024/02/20 05:41:52;;;;;;;7.50;2.50;;;8.60;9.70;;;;;;5114830;28;20190;-43
2024/02/20 05:44:18;;;;;;;5.23;2.30;;;8.60;6.70;;;;;;5114758;28;20274;-43
2024/02/20 05:46:43;;;;;;;4.70;2.63;;;8.60;1.00;;;;;;5114591;28;20605;-44
2024/02/20 05:49:09;;;;;;;6.50;2.43;;;8.50;1.00;;;;;;5097061;28;20247;-42
2024/02/20 05:51:35;;;;;;;6.87;2.57;;;8.50;1.00;;;;;;5115887;28;20416;-44
2024/02/20 05:54:00;;;;;;;7.03;2.60;;;8.50;1.00;;;;;;5114711;28;20318;-44
2024/02/20 05:56:26;;;;;;;6.03;2.97;;;8.50;1.00;;;;;;5113929;28;20180;-43
2024/02/20 05:58:51;;;;;;;5.03;2.97;;;8.50;1.00;;;;;;5112927;28;20187;-41
2024/02/20 06:01:17;;;;;;;8.43;3.30;;;8.60;1.00;;;;;;5114040;28;20179;-42
2024/02/20 06:03:44;;;;;;;7.50;3.00;;;8.50;1.00;;;;;;5114580;28;20183;-45
2024/02/20 06:06:11;;;;;;;8.87;2.50;;;8.60;1.00;;;;;;5113120;28;20532;-43
2024/02/20 06:08:41;;;;;;;5.27;2.83;;;8.60;1.00;;;;;;5092851;28;20433;-42
2024/02/20 06:11:14;;;;;;;6.27;2.50;;;8.60;1.00;;;;;;5109881;28;20489;-41
2024/02/20 06:13:41;;;;;;;8.93;2.73;;;8.60;1.00;;;;;;5074601;28;20422;-42
2024/02/20 06:16:07;;;;;;;5.50;2.23;;;8.60;1.00;;;;;;5092552;28;20430;-41
2024/02/20 06:18:33;;;;;;;8.40;2.47;;;8.60;1.00;;;;;;5075683;28;20858;-41
2024/02/20 06:20:58;;;;;;;6.70;2.80;;;8.70;1.00;;;;;;5092414;28;20635;-42
2024/02/20 06:23:24;;;;;;;8.67;2.83;;;8.70;1.00;;;;;;5073533;28;20179;-44
2024/02/20 06:25:49;;;;;;;11.07;2.90;;;8.70;1.00;;;;;;5090656;28;20625;-41
2024/02/20 06:28:17;;;;;;;9.00;3.17;;;8.70;1.00;;;;;;5091391;28;20203;-42
2024/02/20 06:30:42;;;;;;;3.90;2.13;;;8.70;1.00;;;;;;5091544;28;20189;-42
2024/02/20 06:33:08;;;;;;;5.93;2.60;;;8.70;1.00;;;;;;5091250;28;20432;-44
2024/02/20 06:35:34;;;;;;;6.07;2.83;;;8.70;1.00;;;;;;5092077;28;20454;-42
2024/02/20 06:38:00;;;;;;;9.93;3.23;;;8.70;1.00;;;;;;5112868;28;20184;-42
2024/02/20 06:40:25;;;;;;;9.83;2.90;;;8.80;1.00;;;;;;5116075;28;20583;-42
2024/02/20 06:42:51;;;;;;;6.60;2.17;;;8.70;1.00;;;;;;5115033;28;20212;-42
2024/02/20 06:45:17;;;;;;;9.53;2.93;;;8.80;99.90;;;;;;5097199;28;20476;-44
2024/02/20 06:47:42;;;;;;;7.43;2.40;;;8.80;99.90;;;;;;5114196;28;20203;-43
2024/02/20 06:50:12;;;;;;;7.57;2.87;;;8.80;99.90;;;;;;5113813;28;20284;-42
2024/02/20 06:52:40;;;;;;;4.70;2.30;;;8.90;99.90;;;;;;5112496;28;20167;-43
2024/02/20 06:55:07;;;;;;;6.67;2.60;;;8.90;99.90;;;;;;5113183;28;20425;-44
2024/02/20 06:57:35;;;;;;;5.10;2.63;;;8.90;99.90;;;;;;5112925;28;20492;-41
2024/02/20 07:00:03;;;;;;;4.13;0.60;;;8.90;99.90;;;;;;5113900;28;20418;-48
2024/02/20 07:02:30;;;;;;;3.20;1.00;;;10.10;1.00;;;;;;5115456;28;20945;-47
2024/02/20 07:04:56;;;;;;;4.80;1.10;;;12.60;1.00;;;;;;5117703;28;20433;-46
2024/02/20 07:07:21;;;;;;;6.47;1.27;;;13.60;1.00;;;;;;5097153;28;20555;-46
2024/02/20 07:09:47;;;;;;;20.30;7.53;;;15.00;96.20;;;;;;5115387;28;20605;-44
2024/02/20 07:12:13;;;;;;;12.67;7.17;;;15.70;99.90;;;;;;5116574;28;20778;-46
2024/02/20 07:14:38;;;;;;;14.57;5.30;;;16.60;1.00;;;;;;5116990;28;20504;-44
2024/02/20 07:17:04;;;;;;;13.57;6.23;;;17.30;1.00;;;;;;5116712;28;20180;-45
2024/02/20 07:19:30;;;;;;;8.30;4.00;;;17.70;99.90;;;;;;5117107;28;20621;-46
2024/02/20 07:21:56;;;;;;;10.73;4.20;;;17.70;1.00;;;;;;5115749;28;20183;-44
2024/02/20 07:24:22;;;;;;;10.40;3.70;;;17.80;1.00;;;;;;5096677;28;20179;-44
2024/02/20 07:26:48;;;;;;;8.90;3.63;;;18.00;99.90;;;;;;5115953;28;20465;-44
2024/02/20 07:29:18;;;;;;;8.87;4.00;;;18.00;99.90;;;;;;5117747;28;20174;-45
2024/02/20 07:31:46;;;;;;;9.90;3.70;;;18.20;99.90;;;;;;5117887;28;20169;-44
2024/02/20 07:34:13;;;;;;;9.60;3.70;;;18.00;99.90;;;;;;5099060;28;20854;-43
2024/02/20 07:36:38;;;;;;;7.40;2.73;;;18.10;99.90;;;;;;5117075;28;20511;-45
2024/02/20 07:39:04;;;;;;;9.83;2.60;;;18.00;90.00;;;;;;5117236;28;20585;-44
2024/02/20 07:41:30;;;;;;;7.20;2.97;;;18.10;52.60;;;;;;5118761;28;20175;-43
2024/02/20 07:43:56;;;;;;;5.20;2.60;;;18.30;1.00;;;;;;5116552;28;20513;-43
2024/02/20 07:46:22;;;;;;;5.40;2.60;;;18.50;1.00;;;;;;5116313;28;20465;-44
2024/02/20 07:48:47;;;;;;;8.60;3.10;;;18.60;1.00;;;;;;5115689;28;20429;-41
2024/02/20 07:51:15;;;;;;;7.23;2.80;;;18.60;1.00;;;;;;5115158;28;20187;-43
2024/02/20 07:53:42;;;;;;;5.43;3.20;;;18.40;1.00;;;;;;5115875;28;20172;-43
2024/02/20 07:56:08;;;;;;;7.83;2.63;;;18.40;1.00;;;;;;5114809;28;20425;-43
2024/02/20 07:58:37;;;;;;;8.47;2.67;;;18.40;1.00;;;;;;5113256;28;20904;-46
2024/02/20 08:01:07;;;;;;;4.63;2.43;;;18.40;1.00;;;;;;5115704;28;20167;-42
2024/02/20 08:03:33;;;;;;;4.53;2.53;;;18.40;1.00;;;;;;5116623;28;20504;-42
2024/02/20 08:05:58;;;;;;;6.47;2.80;;;18.00;1.00;;;;;;5113589;28;20661;-41
2024/02/20 08:08:25;;;;;;;7.03;2.53;;;17.40;1.00;;;;;;5114842;28;20356;-40
2024/02/20 08:10:50;;;;;;;8.23;2.80;;;16.70;1.00;;;;;;5117343;28;20652;-41
2024/02/20 08:13:16;;;;;;;8.70;2.87;;;16.10;1.00;;;;;;5098812;28;20203;-43
2024/02/20 08:15:42;;;;;;;4.37;2.17;;;15.60;1.00;;;;;;5116033;28;20176;-42
2024/02/20 08:18:08;;;;;;;5.40;2.47;;;15.20;1.00;;;;;;5116952;28;20180;-40
2024/02/20 08:20:34;;;;;;;6.90;2.33;;;14.90;1.00;;;;;;5115320;28;20471;-43
2024/02/20 08:22:59;;;;;;;6.47;2.60;;;14.70;1.00;;;;;;5096839;28;20188;-44
2024/02/20 08:25:25;;;;;;;6.20;2.70;;;14.50;1.00;;;;;;5115889;28;20183;-43
2024/02/20 08:27:51;;;;;;;9.20;4.10;;;14.30;1.00;;;;;;5115699;28;20176;-39
2024/02/20 08:30:21;;;;;;;8.33;3.80;;;14.20;1.00;;;;;;5115259;28;20409;-42
2024/02/20 08:32:47;;;;;;;7.47;2.87;;;14.00;1.00;;;;;;5116422;28;20164;-42
2024/02/20 08:35:13;;;;;;;7.93;2.43;;;13.90;1.00;;;;;;5116483;28;20422;-42
2024/02/20 08:37:38;;;;;;;8.40;3.10;;;13.70;1.00;;;;;;5116866;28;20171;-41
2024/02/20 08:40:04;;;;;;;6.23;2.53;;;13.60;1.00;;;;;;5117794;28;20264;-41
2024/02/20 08:42:30;;;;;;;8.23;3.80;;;13.60;1.00;;;;;;5116899;28;20176;-41
2024/02/20 08:44:55;;;;;;;10.70;3.43;;;13.50;1.00;;;;;;5096797;28;20417;-42
2024/02/20 08:47:21;;;;;;;9.37;2.80;;;13.40;1.00;;;;;;5115510;28;20210;-41
2024/02/20 08:49:52;;;;;;;4.70;2.10;;;13.40;1.00;;;;;;5115506;28;20168;-41
2024/02/20 08:52:18;;;;;;;7.30;2.67;;;13.40;1.00;;;;;;5117409;28;20187;-43
2024/02/20 08:54:44;;;;;;;5.70;2.33;;;13.40;1.00;;;;;;5099396;28;20406;-41
2024/02/20 08:57:10;;;;;;;6.80;2.50;;;13.40;1.00;;;;;;5116309;28;20195;-41
2024/02/20 08:59:36;;;;;;;5.07;2.67;;;13.40;1.00;;;;;;5115986;28;20534;-43
2024/02/20 09:02:03;;;;;;;5.50;2.60;;;13.50;1.00;;;;;;5118159;28;20171;-42
2024/02/20 09:04:29;;;;;;;6.93;2.70;;;13.40;1.00;;;;;;5117900;28;20263;-41
2024/02/20 09:06:56;;;;;;;5.40;2.57;;;13.50;1.00;;;;;;5116704;28;20796;-43
2024/02/20 09:09:23;;;;;;;5.70;2.43;;;13.50;1.00;;;;;;5118278;28;20268;-42
2024/02/20 09:11:49;;;;;;;6.20;2.67;;;13.60;1.00;;;;;;5118252;28;20425;-43
2024/02/20 09:14:15;;;;;;;6.57;2.83;;;13.70;1.00;;;;;;5117637;28;20183;-42
2024/02/20 09:16:41;;;;;;;8.07;2.43;;;13.70;1.00;;;;;;5117223;28;20435;-41
2024/02/20 09:19:07;;;;;;;7.40;2.70;;;13.80;1.00;;;;;;5117453;28;20445;-43
2024/02/20 09:21:32;;;;;;;4.97;2.50;;;13.90;1.00;;;;;;5117496;28;20187;-42
2024/02/20 09:23:58;;;;;;;5.27;2.73;;;14.00;1.00;;;;;;5117620;28;20207;-48
2024/02/20 09:26:24;;;;;;;9.97;2.70;;;14.10;1.00;;;;;;5116993;28;20310;-44
2024/02/20 09:28:49;;;;;;;11.90;2.83;;;14.30;1.00;;;;;;5115888;28;20176;-41
2024/02/20 09:31:15;;;;;;;7.37;3.23;;;14.70;47.30;;;;;;5115368;28;20214;-41
2024/02/20 09:33:41;;;;;;;7.10;2.53;;;15.10;1.00;;;;;;5116452;28;20171;-41
2024/02/20 09:36:07;;;;;;;7.27;3.13;;;15.50;99.90;;;;;;5116542;28;20593;-41
2024/02/20 09:38:33;;;;;;;5.53;2.63;;;15.60;99.90;;;;;;5115380;28;20661;-43
2024/02/20 09:41:04;;;;;;;7.37;2.47;;;15.40;87.20;;;;;;5098181;28;20433;-41
2024/02/20 09:43:31;;;;;;;5.07;2.13;;;15.20;4.00;;;;;;5115528;28;20195;-41
2024/02/20 09:46:05;;;;;;;8.10;3.73;;;15.00;1.00;;;;;;5097898;28;20481;-42
2024/02/20 09:48:32;;;;;;;7.27;3.30;;;14.80;1.00;;;;;;5116540;28;20805;-42
2024/02/20 09:51:03;;;;;;;10.27;4.23;;;14.90;1.00;;;;;;5099035;28;20521;-42
2024/02/20 09:53:30;;;;;;;7.57;3.13;;;15.00;1.00;;;;;;5097245;28;20770;-42
2024/02/20 09:55:57;;;;;;;12.50;3.57;;;15.20;1.00;;;;;;5114154;28;20433;-43
2024/02/20 09:58:23;;;;;;;8.43;3.87;;;15.30;1.00;;;;;;5098313;28;20443;-46
2024/02/20 10:00:50;;;;;;;8.50;3.50;;;15.20;1.00;;;;;;5116196;28;20413;-42
2024/02/20 10:03:16;;;;;;;6.03;2.53;;;15.10;1.00;;;;;;5115620;28;20436;-41
2024/02/20 10:05:48;;;;;;;12.37;3.77;;;15.10;1.00;;;;;;5116406;28;20421;-42
2024/02/20 10:08:14;;;;;;;8.27;3.50;;;15.10;1.00;;;;;;5098234;28;20653;-42
2024/02/20 10:10:42;;;;;;;12.17;3.33;;;15.10;1.00;;;;;;5116550;28;20433;-42
2024/02/20 10:13:08;;;;;;;7.87;3.10;;;15.10;1.00;;;;;;5116254;28;20183;-41
2024/02/20 10:15:33;;;;;;;10.10;3.27;;;15.00;1.00;;;;;;5117012;28;20416;-42
2024/02/20 10:18:01;;;;;;;10.93;3.37;;;15.30;1.00;;;;;;5117397;28;20414;-43
2024/02/20 10:20:28;;;;;;;9.13;3.27;;;15.80;1.00;;;;;;5116718;28;20219;-42
2024/02/20 10:23:08;;;;;;;9.80;4.50;;;16.50;1.00;;;;;;5116060;28;20429;-42
2024/02/20 10:25:34;;;;;;;11.73;3.30;;;17.00;1.00;;;;;;5115450;28;20455;-48
2024/02/20 10:28:00;;;;;;;6.97;3.07;;;17.10;1.00;;;;;;5116010;28;20421;-43
2024/02/20 10:30:26;;;;;;;8.23;3.10;;;17.00;1.00;;;;;;5114865;28;20785;-42
2024/02/20 10:32:51;;;;;;;7.63;3.00;;;16.70;1.00;;;;;;5115747;28;20180;-43
2024/02/20 10:35:17;;;;;;;5.07;2.60;;;16.40;1.00;;;;;;5117117;28;20432;-42
2024/02/20 10:37:42;;;;;;;6.17;3.10;;;16.10;1.00;;;;;;5116762;28;20167;-42
2024/02/20 10:40:12;;;;;;;7.33;3.50;;;15.80;1.00;;;;;;5115169;28;20453;-43
2024/02/20 10:42:40;;;;;;;3.83;1.97;;;15.90;1.00;;;;;;5116190;28;20180;-45
2024/02/20 10:45:10;;;;;;;7.80;1.53;;;16.50;1.00;;;;;;5116219;28;20425;-45
2024/02/20 10:47:46;;;;;;;7.10;2.20;;;17.60;99.90;;;;;;5115927;28;21025;-48
2024/02/20 10:50:13;;;;;;;6.73;2.07;;;18.30;99.90;;;;;;5115118;28;20417;-46
2024/02/20 10:52:40;;;;;;;7.00;2.07;;;18.90;26.90;;;;;;5115510;28;20425;-45
2024/02/20 10:55:06;;;;;;;4.17;2.00;;;19.30;1.00;;;;;;5115318;28;20429;-46
2024/02/20 10:57:35;;;;;;;7.10;2.13;;;19.50;1.00;;;;;;5116183;28;20413;-47
2024/02/20 11:00:03;;;;;;;5.67;2.00;;;19.80;1.00;;;;;;5116449;28;20413;-48
2024/02/20 11:02:31;;;;;;;4.53;2.20;;;20.60;1.00;;;;;;5117274;28;20433;-45
2024/02/20 11:04:56;;;;;;;7.37;2.30;;;21.50;1.00;;;;;;5100450;28;20661;-42
2024/02/20 11:07:22;;;;;;;6.43;2.70;;;22.40;1.00;;;;;;5118077;28;20567;-42
2024/02/20 11:10:17;;;;;;;5.60;2.90;;;23.60;1.00;;;;;;5117521;28;20654;-41
2024/02/20 11:12:43;;;;;;;7.37;3.10;;;24.80;1.00;;;;;;5117612;28;20210;-44
2024/02/20 11:15:11;;;;;;;5.90;2.50;;;25.70;1.00;;;;;;5117946;28;20418;-42
2024/02/20 11:17:38;;;;;;;6.13;2.63;;;25.90;1.00;;;;;;5117345;28;20443;-43
2024/02/20 11:20:24;;;;;;;7.80;2.90;;;26.10;1.00;;;;;;5117427;28;20712;-43
2024/02/20 11:22:50;;;;;;;5.90;2.77;;;26.20;1.00;;;;;;5118004;28;20490;-44
2024/02/20 11:25:16;;;;;;;9.70;3.80;;;25.30;99.90;;;;;;5119560;28;20935;-44
2024/02/20 11:27:48;;;;;;;5.00;2.40;;;24.40;99.90;;;;;;5118310;28;20500;-42
2024/02/20 11:30:19;;;;;;;7.30;3.10;;;23.60;99.90;;;;;;5119888;28;20184;-44
2024/02/20 11:32:49;;;;;;;5.10;2.17;;;23.00;99.90;;;;;;5120028;28;20520;-42
2024/02/20 11:35:30;;;;;;;7.70;2.57;;;23.00;1.00;;;;;;5118401;28;20440;-44
2024/02/20 11:37:56;;;;;;;5.33;2.03;;;23.00;1.00;;;;;;5116933;28;20432;-42
2024/02/20 11:40:27;;;;;;;8.87;2.73;;;23.10;1.00;;;;;;5100719;28;20426;-43
2024/02/20 11:42:55;;;;;;;7.00;2.70;;;23.10;1.00;;;;;;5117589;28;20414;-43
2024/02/20 11:45:22;;;;;;;4.63;2.30;;;23.40;1.00;;;;;;5117140;28;20405;-43
2024/02/20 11:47:57;;;;;;;5.63;2.47;;;23.30;1.00;;;;;;5117667;28;20475;-44
2024/02/20 11:50:24;;;;;;;6.40;2.87;;;23.00;99.90;;;;;;5118187;28;20421;-43
2024/02/20 11:53:00;;;;;;;5.67;2.20;;;22.50;99.90;;;;;;5118765;28;21007;-46
2024/02/20 11:55:26;;;;;;;8.73;3.17;;;22.10;99.90;;;;;;5116030;28;20437;-42
2024/02/20 11:57:52;;;;;;;3.60;1.90;;;22.20;99.90;;;;;;5117038;28;20478;-45
2024/02/20 12:00:19;;;;;;;5.27;2.17;;;22.80;99.90;;;;;;5081746;28;20217;-43
2024/02/20 12:02:45;;;;;;;5.07;2.43;;;23.20;99.90;;;;;;5097852;28;20425;-41
2024/02/20 12:05:10;;;;;;;6.13;2.63;;;23.80;99.90;;;;;;5114057;28;20438;-42
2024/02/20 12:07:36;;;;;;;4.47;1.90;;;23.80;99.90;;;;;;5114960;28;20204;-43
2024/02/20 12:10:04;;;;;;;3.60;2.17;;;24.20;99.90;;;;;;5115670;28;20213;-43
2024/02/20 12:12:30;;;;;;;3.60;2.70;;;25.00;99.90;;;;;;5115883;28;20203;-43
2024/02/20 12:14:59;;;;;;;4.80;2.60;;;25.90;99.90;;;;;;5117021;28;20426;-43
2024/02/20 12:17:27;;;;;;;5.77;3.10;;;26.90;99.90;;;;;;5116620;28;20410;-43
2024/02/20 12:20:13;;;;;;;4.80;2.30;;;27.70;1.00;;;;;;5116180;28;20484;-44
2024/02/20 12:22:43;;;;;;;3.50;2.47;;;28.40;1.00;;;;;;5116703;28;20548;-42
2024/02/20 12:25:10;;;;;;;4.80;2.33;;;28.70;1.00;;;;;;5116355;28;20517;-45
2024/02/20 12:27:36;;;;;;;5.23;2.23;;;28.80;1.00;;;;;;5115209;28;20526;-43
2024/02/20 12:30:03;;;;;;;5.33;2.43;;;28.80;1.00;;;;;;5080847;28;20537;-44
2024/02/20 12:32:29;;;;;;;4.53;2.43;;;29.00;1.00;;;;;;5115632;28;20411;-43
2024/02/20 12:34:55;;;;;;;5.57;2.30;;;29.30;1.00;;;;;;5114540;28;20676;-44
2024/02/20 12:37:22;;;;;;;5.10;2.50;;;29.60;99.90;;;;;;5116465;28;20425;-45
2024/02/20 12:39:47;;;;;;;6.67;2.80;;;29.80;99.90;;;;;;5116881;28;20396;-42
2024/02/20 12:42:13;;;;;;;6.03;3.40;;;29.60;99.90;;;;;;5115224;28;20850;-42
2024/02/20 12:44:39;;;;;;;9.80;3.30;;;28.90;99.90;;;;;;5115996;28;20179;-44
2024/02/20 12:47:06;;;;;;;5.53;2.27;;;28.20;99.90;;;;;;5116198;28;20203;-44
2024/02/20 12:49:32;;;;;;;5.07;2.50;;;27.40;99.90;;;;;;5097889;28;20191;-44
2024/02/20 12:51:58;;;;;;;4.57;2.60;;;26.50;99.90;;;;;;5116473;28;20506;-42
2024/02/20 12:54:24;;;;;;;8.17;2.80;;;25.80;99.90;;;;;;5114063;28;20840;-42